Terminal Aerodrome Forecast
Issued by NWS Knoxville/Tri Cities, TN

Home | Current Version | Previous Version | Text Only | Print | Product List | Glossary On
Versions: 1 2 3 4 5 6 7 8 9 10 11 12 13 14 15 16 17 18 19 20 21 22 23 24 25 26 27 28 29 30 31 32 33 34 35 36 37 38 39 40 41 42 43 44 45 46 47
000
FTUS44 KMRX 161732 AAA
TAFTRI
TAF AMD
KTRI 161732Z 1618/1718 26008KT P6SM BKN050
     FM162200 30007KT P6SM BKN050
     FM170200 00000KT P6SM SCT150
     FM170500 00000KT 3SM BR SCT005 BKN015
     FM170800 VRB02KT 1SM BR BKN008
      TEMPO 1709/1713 1/2SM FG BKN004
     FM171300 VRB03KT 2SM BR BKN010
     FM171500 VRB03KT P6SM SCT015=

USA.gov is the U.S. government's official web portal to all federal, state and local government web resources and services.